createdAt,value
2023-05-10T00:00:11.274Z,11.26
2023-05-10T00:02:37.808Z,11.23
2023-05-10T00:05:04.383Z,11.20
2023-05-10T00:07:30.715Z,11.09
2023-05-10T00:09:57.288Z,11.08
2023-05-10T00:12:23.800Z,11.05
2023-05-10T00:14:50.140Z,11.01
2023-05-10T00:17:16.603Z,10.96
2023-05-10T00:19:42.933Z,10.98
2023-05-10T00:22:09.260Z,10.94
2023-05-10T00:24:35.564Z,10.95
2023-05-10T00:27:01.927Z,10.90
2023-05-10T00:29:29.374Z,10.89
2023-05-10T00:31:55.859Z,10.89
2023-05-10T00:34:22.305Z,10.86
2023-05-10T00:36:48.653Z,10.83
2023-05-10T00:39:15.059Z,10.81
2023-05-10T00:41:41.377Z,10.81
2023-05-10T00:44:07.710Z,10.76
2023-05-10T00:46:34.139Z,10.74
2023-05-10T00:49:00.669Z,10.66
2023-05-10T00:51:27.082Z,10.64
2023-05-10T00:53:53.669Z,10.64
2023-05-10T00:56:21.515Z,10.63
2023-05-10T00:58:47.828Z,10.66
2023-05-10T01:01:14.675Z,10.58
2023-05-10T01:03:41.356Z,10.55
2023-05-10T01:06:08.210Z,10.56
2023-05-10T01:08:34.849Z,10.52
2023-05-10T01:11:01.245Z,10.46
2023-05-10T01:13:33.076Z,10.43
2023-05-10T01:15:59.805Z,10.40
2023-05-10T01:18:27.813Z,10.38
2023-05-10T01:21:01.030Z,10.35
2023-05-10T01:23:46.059Z,10.35
2023-05-10T01:26:32.597Z,10.31
2023-05-10T01:29:05.047Z,10.30
2023-05-10T01:31:31.401Z,10.29
2023-05-10T01:34:08.392Z,10.26
2023-05-10T01:36:34.852Z,10.21
2023-05-10T01:39:15.350Z,10.30
2023-05-10T01:41:53.959Z,10.30
2023-05-10T01:44:38.365Z,10.29
2023-05-10T01:47:12.476Z,10.23
2023-05-10T01:49:44.534Z,10.25
2023-05-10T01:52:13.020Z,10.29
2023-05-10T01:54:45.385Z,10.34
2023-05-10T01:57:14.794Z,10.37
2023-05-10T01:59:43.598Z,10.38
2023-05-10T02:02:12.859Z,10.42
2023-05-10T02:04:43.049Z,10.38
2023-05-10T02:07:09.789Z,10.42
2023-05-10T02:09:37.358Z,10.40
2023-05-10T02:12:04.915Z,10.36
2023-05-10T02:14:36.029Z,10.31
2023-05-10T02:17:03.373Z,10.23
2023-05-10T02:19:30.015Z,10.21
2023-05-10T02:21:56.770Z,10.20
2023-05-10T02:24:25.292Z,10.20
2023-05-10T02:26:54.621Z,10.20
2023-05-10T02:29:21.445Z,10.22
2023-05-10T02:31:48.481Z,10.23
2023-05-10T02:34:15.297Z,10.17
2023-05-10T02:36:42.283Z,10.18
2023-05-10T02:39:13.553Z,10.14
2023-05-10T02:41:41.559Z,10.12
2023-05-10T02:44:09.067Z,10.07
2023-05-10T02:46:35.817Z,10.03
2023-05-10T02:49:02.247Z,9.88
2023-05-10T02:51:33.257Z,9.83
2023-05-10T02:54:01.747Z,9.83
2023-05-10T02:56:32.700Z,9.80
2023-05-10T02:58:59.039Z,9.82
2023-05-10T03:01:25.439Z,9.80
2023-05-10T03:03:51.803Z,9.69
2023-05-10T03:06:18.157Z,9.69
2023-05-10T03:08:45.335Z,9.67
2023-05-10T03:11:21.968Z,9.63
2023-05-10T03:14:03.588Z,9.55
2023-05-10T03:16:33.521Z,9.49
2023-05-10T03:19:07.156Z,9.53
2023-05-10T03:21:34.015Z,9.44
2023-05-10T03:24:04.654Z,9.41
2023-05-10T03:26:31.166Z,9.30
2023-05-10T03:28:59.870Z,9.28
2023-05-10T03:31:26.402Z,9.27
2023-05-10T03:33:53.670Z,9.33
2023-05-10T03:36:20.279Z,9.31
2023-05-10T03:38:46.683Z,9.31
2023-05-10T03:41:13.192Z,9.28
2023-05-10T03:43:39.527Z,9.25
2023-05-10T03:46:06.185Z,9.25
2023-05-10T03:48:35.780Z,9.26
2023-05-10T03:51:02.090Z,9.28
2023-05-10T03:53:28.551Z,9.33
2023-05-10T03:55:54.864Z,9.40
2023-05-10T03:58:21.319Z,9.45
2023-05-10T04:00:47.694Z,9.49
2023-05-10T04:03:14.485Z,9.52
2023-05-10T04:05:41.028Z,9.55
2023-05-10T04:08:07.434Z,9.60
2023-05-10T04:10:33.887Z,9.64
2023-05-10T04:13:00.577Z,9.72
2023-05-10T04:15:29.513Z,9.73
2023-05-10T04:17:55.941Z,9.74
2023-05-10T04:20:22.407Z,9.85
2023-05-10T04:22:48.746Z,9.92
2023-05-10T04:25:15.084Z,10.04
2023-05-10T04:27:41.412Z,10.08
2023-05-10T04:30:08.194Z,10.13
2023-05-10T04:32:34.561Z,10.17
2023-05-10T04:35:04.569Z,10.20
2023-05-10T04:37:31.018Z,10.27
2023-05-10T04:39:57.372Z,10.33
2023-05-10T04:42:23.706Z,10.34
2023-05-10T04:44:50.063Z,10.34
2023-05-10T04:47:17.266Z,10.39
2023-05-10T04:49:43.692Z,10.45
2023-05-10T04:52:09.983Z,10.53
2023-05-10T04:54:36.278Z,10.59
2023-05-10T04:57:02.710Z,10.61
2023-05-10T04:59:29.072Z,10.64
2023-05-10T05:01:55.435Z,10.68
2023-05-10T05:04:23.873Z,10.74
2023-05-10T05:06:51.711Z,10.80
2023-05-10T05:09:20.067Z,10.86
2023-05-10T05:11:46.411Z,10.90
2023-05-10T05:14:12.779Z,10.96
2023-05-10T05:16:39.359Z,11.02
2023-05-10T05:19:06.114Z,11.11
2023-05-10T05:21:33.608Z,11.23
2023-05-10T05:24:00.000Z,11.27
2023-05-10T05:26:27.480Z,11.32
2023-05-10T05:28:55.493Z,11.35
2023-05-10T05:31:21.934Z,11.39
2023-05-10T05:33:48.332Z,11.44
2023-05-10T05:36:14.679Z,11.45
2023-05-10T05:38:41.237Z,11.49
2023-05-10T05:41:07.580Z,11.54
2023-05-10T05:43:35.569Z,11.68
2023-05-10T05:46:03.833Z,11.86
2023-05-10T05:48:31.077Z,11.95
2023-05-10T05:50:57.822Z,12.05
2023-05-10T05:53:24.291Z,12.26
2023-05-10T05:55:55.056Z,12.31
2023-05-10T05:58:21.879Z,12.36
2023-05-10T06:00:48.404Z,12.52
2023-05-10T06:03:14.887Z,12.82
2023-05-10T06:05:41.312Z,12.88
2023-05-10T06:08:07.664Z,13.15
2023-05-10T06:10:34.066Z,13.20
2023-05-10T06:13:00.863Z,13.31
2023-05-10T06:15:27.710Z,13.26
2023-05-10T06:17:54.126Z,13.18
2023-05-10T06:20:20.518Z,13.47
2023-05-10T06:22:46.940Z,13.41
2023-05-10T06:25:13.371Z,13.39
2023-05-10T06:27:39.683Z,13.62
2023-05-10T06:30:13.036Z,13.77
2023-05-10T06:32:39.920Z,14.02
2023-05-10T06:35:06.596Z,14.09
2023-05-10T06:37:32.987Z,13.96
2023-05-10T06:39:59.373Z,13.75
2023-05-10T06:42:26.466Z,13.79
2023-05-10T06:44:52.917Z,13.77
2023-05-10T06:47:19.606Z,13.82
2023-05-10T06:49:45.991Z,13.64
2023-05-10T06:52:12.390Z,13.73
2023-05-10T06:54:38.795Z,13.72
2023-05-10T06:57:10.786Z,13.60
2023-05-10T06:59:42.694Z,13.67
2023-05-10T07:02:09.354Z,13.67
2023-05-10T07:04:35.796Z,13.66
2023-05-10T07:07:02.137Z,13.59
2023-05-10T07:09:29.151Z,13.71
2023-05-10T07:11:55.774Z,13.71
2023-05-10T07:14:22.147Z,13.77
2023-05-10T07:16:48.472Z,13.97
2023-05-10T07:19:15.022Z,14.17
2023-05-10T07:21:43.590Z,14.30
2023-05-10T07:24:10.191Z,14.39
2023-05-10T07:26:36.688Z,14.49
2023-05-10T07:29:03.432Z,14.25
2023-05-10T07:31:29.878Z,14.24
2023-05-10T07:33:56.214Z,14.37
2023-05-10T07:36:22.683Z,14.38
2023-05-10T07:38:50.422Z,14.33
2023-05-10T07:41:16.842Z,14.54
2023-05-10T07:43:43.191Z,14.65
2023-05-10T07:46:11.102Z,14.63
2023-05-10T07:48:38.211Z,14.71
2023-05-10T07:51:04.542Z,14.80
2023-05-10T07:53:30.932Z,14.87
2023-05-10T07:56:00.192Z,15.11
2023-05-10T07:58:26.675Z,15.07
2023-05-10T08:00:53.131Z,15.02
2023-05-10T08:03:19.667Z,15.03
2023-05-10T08:05:46.110Z,14.98
2023-05-10T08:08:12.409Z,15.23
2023-05-10T08:10:38.838Z,15.46
2023-05-10T08:13:05.283Z,15.78
2023-05-10T08:15:31.667Z,15.83
2023-05-10T08:17:58.049Z,15.97
2023-05-10T08:20:24.369Z,16.19
2023-05-10T08:22:51.916Z,16.39
2023-05-10T08:25:18.582Z,16.36
2023-05-10T08:27:45.130Z,16.28
2023-05-10T08:30:11.628Z,16.66
2023-05-10T08:32:38.959Z,16.92
2023-05-10T08:35:06.029Z,17.12
2023-05-10T08:37:33.256Z,17.12
2023-05-10T08:39:59.654Z,16.83
2023-05-10T08:42:27.077Z,16.62
2023-05-10T08:44:54.169Z,16.46
2023-05-10T08:47:21.203Z,16.48
2023-05-10T08:49:49.791Z,16.63
2023-05-10T08:52:17.483Z,17.07
2023-05-10T08:54:44.725Z,17.29
2023-05-10T08:57:11.483Z,17.20
2023-05-10T08:59:40.380Z,17.28
2023-05-10T09:02:07.179Z,17.29
2023-05-10T09:04:33.728Z,17.59
2023-05-10T09:07:00.352Z,17.18
2023-05-10T09:09:27.061Z,17.39
2023-05-10T09:11:54.226Z,17.47
2023-05-10T09:14:20.775Z,17.43
2023-05-10T09:16:47.860Z,17.57
2023-05-10T09:19:14.653Z,17.63
2023-05-10T09:21:41.107Z,17.50
2023-05-10T09:24:08.294Z,17.60
2023-05-10T09:26:36.469Z,17.82
2023-05-10T09:29:03.958Z,18.04
2023-05-10T09:31:51.843Z,18.13
2023-05-10T09:34:19.295Z,18.34
2023-05-10T09:36:59.052Z,18.47
2023-05-10T09:39:31.868Z,18.58
2023-05-10T09:41:58.875Z,18.34
2023-05-10T09:44:26.455Z,18.42
2023-05-10T09:46:53.775Z,18.64
2023-05-10T09:49:21.713Z,18.37
2023-05-10T09:51:48.625Z,18.52
2023-05-10T09:54:16.045Z,18.06
2023-05-10T09:56:42.655Z,18.55
2023-05-10T09:59:10.152Z,18.80
2023-05-10T10:01:36.781Z,19.17
2023-05-10T10:04:07.105Z,19.19
2023-05-10T10:06:40.137Z,19.05
2023-05-10T10:09:07.346Z,19.15
2023-05-10T10:11:35.906Z,19.30
2023-05-10T10:14:02.418Z,19.64
2023-05-10T10:16:32.627Z,19.64
2023-05-10T10:18:59.543Z,19.76
2023-05-10T10:21:26.146Z,19.64
2023-05-10T10:23:52.733Z,19.61
2023-05-10T10:26:19.876Z,19.99
2023-05-10T10:29:21.835Z,20.39
2023-05-10T10:32:03.453Z,19.93
2023-05-10T10:34:30.853Z,19.96
2023-05-10T10:36:57.780Z,19.77
2023-05-10T10:39:27.948Z,20.08
2023-05-10T10:41:57.681Z,20.20
2023-05-10T10:44:27.049Z,20.30
2023-05-10T10:47:25.577Z,20.00
2023-05-10T10:49:53.564Z,19.72
2023-05-10T10:52:30.699Z,19.83
2023-05-10T10:55:02.948Z,19.98
2023-05-10T10:57:32.200Z,19.86
2023-05-10T11:00:17.510Z,20.15
2023-05-10T11:02:46.930Z,20.00
2023-05-10T11:05:25.724Z,20.21
2023-05-10T11:07:52.524Z,20.18
2023-05-10T11:10:22.928Z,20.26
2023-05-10T11:13:08.732Z,20.31
2023-05-10T11:15:41.613Z,19.65
2023-05-10T11:18:18.080Z,19.53
2023-05-10T11:20:44.505Z,19.75
2023-05-10T11:23:16.766Z,19.66
2023-05-10T11:25:45.050Z,19.73
2023-05-10T11:28:12.267Z,19.90
2023-05-10T11:30:42.280Z,19.88
2023-05-10T11:33:09.345Z,19.53
2023-05-10T11:35:41.748Z,19.59
2023-05-10T11:38:10.393Z,19.53
2023-05-10T11:40:37.529Z,19.37
2023-05-10T11:43:04.382Z,19.43
2023-05-10T11:45:33.233Z,19.31
2023-05-10T11:48:00.407Z,18.98
2023-05-10T11:50:29.540Z,18.81
2023-05-10T11:52:56.810Z,18.78
2023-05-10T11:55:25.004Z,18.79
2023-05-10T11:57:55.048Z,18.89
2023-05-10T12:00:21.981Z,18.78
2023-05-10T12:02:49.069Z,18.45
2023-05-10T12:05:15.818Z,18.49
2023-05-10T12:07:42.184Z,18.52
2023-05-10T12:10:10.077Z,18.32
2023-05-10T12:12:37.848Z,18.26
2023-05-10T12:15:04.692Z,18.15
2023-05-10T12:17:31.113Z,18.21
2023-05-10T12:20:14.713Z,18.22
2023-05-10T12:22:41.613Z,18.24
2023-05-10T12:25:09.327Z,18.20
2023-05-10T12:27:35.792Z,18.34
2023-05-10T12:30:03.553Z,18.33
2023-05-10T12:32:39.818Z,18.04
2023-05-10T12:35:06.733Z,17.70
2023-05-10T12:37:36.737Z,17.30
2023-05-10T12:40:03.993Z,16.95
2023-05-10T12:42:30.411Z,16.75
2023-05-10T12:44:57.537Z,16.55
2023-05-10T12:47:24.078Z,16.26
2023-05-10T12:49:50.482Z,16.08
2023-05-10T12:52:16.795Z,15.47
2023-05-10T12:54:43.152Z,15.01
2023-05-10T12:57:09.548Z,14.74
2023-05-10T12:59:37.946Z,14.42
2023-05-10T13:02:04.651Z,14.34
2023-05-10T13:04:31.041Z,14.31
2023-05-10T13:06:59.955Z,14.28
2023-05-10T13:09:27.531Z,14.32
2023-05-10T13:11:56.840Z,14.33
2023-05-10T13:14:23.188Z,14.22
2023-05-10T13:16:49.654Z,14.30
2023-05-10T13:19:16.885Z,14.19
2023-05-10T13:21:43.515Z,13.98
2023-05-10T13:24:09.979Z,13.87
2023-05-10T13:26:37.236Z,13.70
2023-05-10T13:29:04.380Z,13.58
2023-05-10T13:31:30.818Z,13.47
2023-05-10T13:33:57.394Z,13.38
2023-05-10T13:36:23.881Z,13.39
2023-05-10T13:38:50.251Z,13.52
2023-05-10T13:41:16.572Z,13.59
2023-05-10T13:43:42.892Z,13.57
2023-05-10T13:46:09.272Z,13.59
2023-05-10T13:48:39.116Z,13.71
2023-05-10T13:51:05.608Z,13.77
2023-05-10T13:53:31.972Z,13.74
2023-05-10T13:55:58.276Z,13.71
2023-05-10T13:58:24.932Z,13.62
2023-05-10T14:00:51.393Z,13.68
2023-05-10T14:03:20.582Z,13.77
2023-05-10T14:05:48.453Z,13.77
2023-05-10T14:08:15.559Z,13.72
2023-05-10T14:10:41.985Z,13.67
2023-05-10T14:13:08.917Z,13.66
2023-05-10T14:15:35.285Z,13.63
2023-05-10T14:18:01.652Z,13.69
2023-05-10T14:20:28.016Z,13.67
2023-05-10T14:22:54.388Z,13.71
2023-05-10T14:25:21.150Z,13.76
2023-05-10T14:27:47.691Z,13.86
2023-05-10T14:30:14.314Z,13.86
2023-05-10T14:32:40.770Z,13.81
2023-05-10T14:35:07.397Z,13.89
2023-05-10T14:37:34.125Z,13.96
2023-05-10T14:40:00.454Z,13.98
2023-05-10T14:42:26.759Z,13.99
2023-05-10T14:44:53.070Z,14.05
2023-05-10T14:47:19.595Z,14.11
2023-05-10T14:49:45.958Z,14.17
2023-05-10T14:52:13.223Z,14.25
2023-05-10T14:54:39.668Z,14.43
2023-05-10T14:57:06.400Z,14.45
2023-05-10T14:59:32.778Z,14.60
2023-05-10T15:01:59.813Z,14.63
2023-05-10T15:04:28.405Z,14.63
2023-05-10T15:06:59.967Z,14.63
2023-05-10T15:09:26.738Z,14.68
2023-05-10T15:11:53.096Z,14.77
2023-05-10T15:14:20.433Z,14.79
2023-05-10T15:16:46.860Z,14.92
2023-05-10T15:19:13.306Z,15.03
2023-05-10T15:21:40.123Z,14.91
2023-05-10T15:24:06.785Z,14.89
2023-05-10T15:26:33.584Z,15.01
2023-05-10T15:28:59.996Z,15.13
2023-05-10T15:31:26.386Z,15.11
2023-05-10T15:33:52.810Z,15.19
2023-05-10T15:36:19.225Z,15.12
2023-05-10T15:38:45.623Z,15.35
2023-05-10T15:41:12.729Z,15.46
2023-05-10T15:43:39.047Z,15.57
2023-05-10T15:46:06.895Z,15.65
2023-05-10T15:48:33.316Z,15.72
2023-05-10T15:50:59.683Z,15.79
2023-05-10T15:53:26.012Z,15.91
2023-05-10T15:55:52.384Z,15.98
2023-05-10T15:58:19.086Z,15.88
2023-05-10T16:00:45.485Z,15.89
2023-05-10T16:03:12.722Z,15.78
2023-05-10T16:05:39.261Z,15.68
2023-05-10T16:08:05.633Z,15.60
2023-05-10T16:10:33.297Z,15.64
2023-05-10T16:13:00.479Z,15.70
2023-05-10T16:15:27.489Z,15.74
2023-05-10T16:17:53.921Z,15.76
2023-05-10T16:20:20.439Z,15.85
2023-05-10T16:22:46.750Z,15.90
2023-05-10T16:25:13.752Z,15.86
2023-05-10T16:27:40.182Z,15.94
2023-05-10T16:30:06.862Z,15.98
2023-05-10T16:32:33.208Z,16.04
2023-05-10T16:35:00.369Z,16.02
2023-05-10T16:37:26.807Z,15.96
2023-05-10T16:39:53.129Z,16.03
2023-05-10T16:42:19.508Z,16.07
2023-05-10T16:44:45.915Z,16.12
2023-05-10T16:47:12.224Z,16.07
2023-05-10T16:49:38.551Z,16.17
2023-05-10T16:52:04.906Z,16.09
2023-05-10T16:54:31.288Z,15.98
2023-05-10T16:56:57.588Z,15.95
2023-05-10T16:59:23.875Z,15.98
2023-05-10T17:01:53.128Z,16.10
2023-05-10T17:04:19.727Z,16.20
2023-05-10T17:06:46.702Z,16.24
2023-05-10T17:09:13.163Z,16.34
2023-05-10T17:11:39.471Z,16.28
2023-05-10T17:14:06.029Z,16.14
2023-05-10T17:16:32.379Z,16.10
2023-05-10T17:18:58.821Z,15.96
2023-05-10T17:21:25.363Z,15.88
2023-05-10T17:23:51.692Z,15.81
2023-05-10T17:26:18.033Z,15.76
2023-05-10T17:28:44.422Z,15.83
2023-05-10T17:31:10.870Z,15.83
2023-05-10T17:33:37.604Z,15.76
2023-05-10T17:36:04.099Z,15.72
2023-05-10T17:38:30.480Z,15.77
2023-05-10T17:40:56.963Z,15.75
2023-05-10T17:43:23.812Z,15.68
2023-05-10T17:45:50.122Z,15.68
2023-05-10T17:48:17.188Z,15.70
2023-05-10T17:50:43.639Z,15.69
2023-05-10T17:53:10.291Z,15.70
2023-05-10T17:55:39.229Z,15.76
2023-05-10T17:58:05.556Z,15.75
2023-05-10T18:00:32.570Z,15.62
2023-05-10T18:02:58.940Z,15.57
2023-05-10T18:05:25.481Z,15.58
2023-05-10T18:07:52.019Z,15.57
2023-05-10T18:10:18.717Z,15.50
2023-05-10T18:12:45.390Z,15.40
2023-05-10T18:15:11.988Z,15.32
2023-05-10T18:17:38.627Z,15.24
2023-05-10T18:20:06.057Z,15.18
2023-05-10T18:22:32.380Z,15.17
2023-05-10T18:24:58.700Z,15.10
2023-05-10T18:27:25.335Z,15.00
2023-05-10T18:29:52.315Z,14.90
2023-05-10T18:32:18.687Z,14.85
2023-05-10T18:34:45.049Z,14.78
2023-05-10T18:37:11.410Z,14.71
2023-05-10T18:39:37.918Z,14.66
2023-05-10T18:42:05.690Z,14.61
2023-05-10T18:44:32.048Z,14.55
2023-05-10T18:46:59.247Z,14.48
2023-05-10T18:49:27.579Z,14.47
2023-05-10T18:51:53.924Z,14.40
2023-05-10T18:54:20.662Z,14.38
2023-05-10T18:56:47.214Z,14.36
2023-05-10T18:59:13.884Z,14.30
2023-05-10T19:01:41.079Z,14.26
2023-05-10T19:04:08.717Z,14.20
2023-05-10T19:06:35.932Z,14.18
2023-05-10T19:09:02.305Z,14.15
2023-05-10T19:11:31.986Z,14.09
2023-05-10T19:13:58.427Z,14.05
2023-05-10T19:16:25.049Z,14.02
2023-05-10T19:18:52.439Z,14.02
2023-05-10T19:21:19.368Z,14.02
2023-05-10T19:23:46.598Z,14.01
2023-05-10T19:26:13.761Z,14.04
2023-05-10T19:28:40.221Z,14.03
2023-05-10T19:31:07.079Z,13.92
2023-05-10T19:33:33.552Z,13.85
2023-05-10T19:36:00.142Z,13.81
2023-05-10T19:38:26.559Z,13.78
2023-05-10T19:40:58.515Z,13.76
2023-05-10T19:43:28.876Z,13.83
2023-05-10T19:45:58.086Z,13.82
2023-05-10T19:48:24.682Z,13.80
2023-05-10T19:53:28.068Z,13.82
2023-05-10T19:55:54.846Z,13.75
2023-05-10T20:00:55.607Z,13.73
2023-05-10T20:03:22.134Z,13.70
2023-05-10T20:05:48.601Z,13.64
2023-05-10T20:08:21.409Z,13.57
2023-05-10T20:10:47.754Z,13.47
2023-05-10T20:13:14.194Z,13.42
2023-05-10T20:15:40.872Z,13.37
2023-05-10T20:18:07.283Z,13.37
2023-05-10T20:20:33.620Z,13.36
2023-05-10T20:22:59.953Z,13.35
2023-05-10T20:25:26.329Z,13.36
2023-05-10T20:27:52.934Z,13.34
2023-05-10T20:30:19.629Z,13.25
2023-05-10T20:32:46.435Z,13.20
2023-05-10T20:35:12.908Z,13.15
2023-05-10T20:37:39.689Z,13.17
2023-05-10T20:40:06.862Z,13.11
2023-05-10T20:42:33.265Z,13.12
2023-05-10T20:44:59.974Z,13.10
2023-05-10T20:47:27.198Z,13.11
2023-05-10T20:49:53.719Z,13.10
2023-05-10T20:52:20.098Z,13.13
2023-05-10T20:54:46.589Z,13.11
2023-05-10T20:57:13.082Z,13.06
2023-05-10T20:59:39.429Z,13.08
2023-05-10T21:02:05.963Z,13.09
2023-05-10T21:04:32.326Z,13.07
2023-05-10T21:06:58.756Z,13.10
2023-05-10T21:09:25.201Z,13.12
2023-05-10T21:11:51.884Z,13.11
2023-05-10T21:14:18.269Z,13.13
2023-05-10T21:16:44.802Z,13.15
2023-05-10T21:19:11.589Z,13.13
2023-05-10T21:21:37.900Z,13.17
2023-05-10T21:24:04.364Z,13.11
2023-05-10T21:26:31.265Z,13.07
2023-05-10T21:28:58.169Z,12.99
2023-05-10T21:31:24.588Z,13.02
2023-05-10T21:33:51.003Z,13.00
2023-05-10T21:36:17.419Z,13.01
2023-05-10T21:38:44.588Z,13.03
2023-05-10T21:41:11.102Z,13.01
2023-05-10T21:43:37.471Z,12.99
2023-05-10T21:46:03.988Z,12.99
2023-05-10T21:48:30.848Z,12.93
2023-05-10T21:50:57.245Z,12.89
2023-05-10T21:53:23.572Z,12.87
2023-05-10T21:55:49.876Z,12.85
2023-05-10T21:58:16.509Z,12.79
2023-05-10T22:00:43.224Z,12.74
2023-05-10T22:03:09.631Z,12.74
2023-05-10T22:05:36.138Z,12.75
2023-05-10T22:08:02.460Z,12.74
2023-05-10T22:10:29.360Z,12.72
2023-05-10T22:12:55.744Z,12.66
2023-05-10T22:15:22.122Z,12.62
2023-05-10T22:17:48.514Z,12.56
2023-05-10T22:20:15.017Z,12.60
2023-05-10T22:22:41.439Z,12.60
2023-05-10T22:25:08.331Z,12.60
2023-05-10T22:27:34.955Z,12.60
2023-05-10T22:30:01.594Z,12.58
2023-05-10T22:32:28.144Z,12.61
2023-05-10T22:34:54.621Z,12.64
2023-05-10T22:37:21.149Z,12.64
2023-05-10T22:39:48.608Z,12.66
2023-05-10T22:42:15.147Z,12.64
2023-05-10T22:44:42.794Z,12.63
2023-05-10T22:47:09.169Z,12.61
2023-05-10T22:49:35.516Z,12.58
2023-05-10T22:52:01.829Z,12.53
2023-05-10T22:54:28.180Z,12.53
2023-05-10T22:56:54.707Z,12.48
2023-05-10T22:59:21.116Z,12.46
2023-05-10T23:01:48.894Z,12.41
2023-05-10T23:04:15.761Z,12.30
2023-05-10T23:06:42.156Z,12.30
2023-05-10T23:09:08.951Z,12.30
2023-05-10T23:11:35.289Z,12.26
2023-05-10T23:14:01.663Z,12.19
2023-05-10T23:16:28.053Z,12.19
2023-05-10T23:18:54.775Z,12.17
2023-05-10T23:21:21.429Z,12.18
2023-05-10T23:23:47.960Z,12.12
2023-05-10T23:26:14.312Z,12.09
2023-05-10T23:28:40.621Z,11.98
2023-05-10T23:31:06.924Z,11.96
2023-05-10T23:33:33.335Z,11.92
2023-05-10T23:35:59.644Z,11.93
2023-05-10T23:38:26.018Z,11.91
2023-05-10T23:40:52.354Z,11.89
2023-05-10T23:43:19.869Z,11.83
2023-05-10T23:45:53.775Z,11.83
2023-05-10T23:48:20.146Z,11.86
2023-05-10T23:50:46.645Z,11.85
2023-05-10T23:53:13.217Z,11.88
2023-05-10T23:55:39.589Z,11.88
2023-05-10T23:58:06.042Z,11.87
